createdAt,value
2017-01-14T00:00:31.790Z,992.65
2017-01-14T00:01:42.510Z,992.64
2017-01-14T00:02:53.256Z,992.62
2017-01-14T00:04:04.355Z,992.62
2017-01-14T00:05:15.069Z,992.65
2017-01-14T00:06:25.787Z,992.63
2017-01-14T00:07:36.511Z,992.62
2017-01-14T00:08:47.233Z,992.55
2017-01-14T00:09:57.966Z,992.51
2017-01-14T00:11:08.674Z,992.5
2017-01-14T00:12:19.391Z,992.48
2017-01-14T00:13:30.112Z,992.44
2017-01-14T00:14:40.820Z,992.44
2017-01-14T00:15:51.558Z,992.38
2017-01-14T00:17:02.289Z,992.37
2017-01-14T00:18:13.005Z,992.35
2017-01-14T00:19:23.729Z,992.39
2017-01-14T00:20:34.467Z,992.33
2017-01-14T00:21:45.188Z,992.32
2017-01-14T00:22:55.919Z,992.38
2017-01-14T00:24:06.652Z,992.3
2017-01-14T00:25:17.359Z,992.32
2017-01-14T00:26:28.070Z,992.35
2017-01-14T00:27:38.777Z,992.32
2017-01-14T00:28:49.512Z,992.33
2017-01-14T00:30:00.232Z,992.3
2017-01-14T00:31:10.963Z,992.31
2017-01-14T00:32:21.661Z,992.32
2017-01-14T00:33:32.398Z,992.27
2017-01-14T00:34:43.115Z,992.27
2017-01-14T00:35:53.840Z,992.24
2017-01-14T00:37:04.565Z,992.27
2017-01-14T00:38:15.289Z,992.27
2017-01-14T00:39:26.033Z,992.2
2017-01-14T00:40:36.745Z,992.22
2017-01-14T00:41:47.445Z,992.23
2017-01-14T00:42:58.138Z,992.23
2017-01-14T00:44:08.871Z,992.21
2017-01-14T00:45:19.583Z,992.17
2017-01-14T00:46:30.328Z,992.17
2017-01-14T00:47:41.071Z,992.15
2017-01-14T00:48:51.796Z,992.17
2017-01-14T00:50:02.517Z,992.15
2017-01-14T00:51:13.259Z,992.1
2017-01-14T00:52:23.968Z,992.09
2017-01-14T00:53:35.083Z,992.12
2017-01-14T00:54:45.786Z,992.11
2017-01-14T00:55:56.509Z,992.12
2017-01-14T00:57:07.217Z,992.09
2017-01-14T00:58:17.961Z,992.1
2017-01-14T00:59:28.692Z,992.07
2017-01-14T01:00:39.416Z,992.11
2017-01-14T01:01:50.133Z,992.11
2017-01-14T01:03:00.845Z,992.11
2017-01-14T01:04:11.565Z,992.09
2017-01-14T01:05:22.274Z,992.13
2017-01-14T01:06:33.010Z,992.09
2017-01-14T01:07:43.739Z,992.14
2017-01-14T01:08:54.456Z,992.07
2017-01-14T01:10:05.570Z,992.03
2017-01-14T01:11:16.273Z,992.05
2017-01-14T01:12:26.993Z,992.08
2017-01-14T01:13:37.740Z,992.07
2017-01-14T01:14:48.479Z,991.99
2017-01-14T01:15:59.181Z,992.03
2017-01-14T01:17:09.908Z,992.01
2017-01-14T01:18:20.631Z,991.96
2017-01-14T01:19:31.345Z,991.96
2017-01-14T01:20:42.046Z,991.87
2017-01-14T01:21:52.754Z,991.86
2017-01-14T01:23:03.479Z,991.87
2017-01-14T01:24:14.206Z,991.86
2017-01-14T01:25:24.929Z,991.89
2017-01-14T01:26:35.645Z,991.88
2017-01-14T01:27:46.350Z,991.88
2017-01-14T01:28:57.063Z,991.88
2017-01-14T01:30:07.751Z,991.87
2017-01-14T01:31:18.504Z,991.91
2017-01-14T01:32:29.221Z,991.93
2017-01-14T01:33:39.975Z,991.83
2017-01-14T01:34:50.709Z,991.8
2017-01-14T01:36:01.413Z,991.88
2017-01-14T01:37:12.143Z,991.87
2017-01-14T01:38:22.861Z,991.88
2017-01-14T01:39:33.593Z,991.93
2017-01-14T01:40:44.322Z,991.86
2017-01-14T01:41:55.067Z,991.85
2017-01-14T01:43:05.797Z,991.81
2017-01-14T01:44:16.510Z,991.87
2017-01-14T01:45:27.241Z,991.83
2017-01-14T01:46:37.977Z,991.85
2017-01-14T01:47:48.702Z,991.81
2017-01-14T01:48:59.399Z,991.81
2017-01-14T01:50:10.110Z,991.76
2017-01-14T01:51:20.886Z,991.75
2017-01-14T01:52:31.624Z,991.74
2017-01-14T01:53:42.346Z,991.71
2017-01-14T01:54:53.071Z,991.67
2017-01-14T01:56:03.773Z,991.7
2017-01-14T01:57:14.494Z,991.61
2017-01-14T01:58:25.179Z,991.64
2017-01-14T01:59:35.882Z,991.59
2017-01-14T02:00:46.596Z,991.57
2017-01-14T02:01:57.317Z,991.57
2017-01-14T02:03:08.062Z,991.57
2017-01-14T02:04:18.792Z,991.52
2017-01-14T02:05:29.518Z,991.51
2017-01-14T02:06:40.238Z,991.5
2017-01-14T02:07:50.957Z,991.51
2017-01-14T02:09:01.655Z,991.44
2017-01-14T02:10:12.392Z,991.44
2017-01-14T02:11:23.102Z,991.41
2017-01-14T02:12:33.838Z,991.45
2017-01-14T02:13:44.580Z,991.39
2017-01-14T02:14:55.327Z,991.39
2017-01-14T02:16:06.053Z,991.4
2017-01-14T02:17:17.143Z,991.4
2017-01-14T02:18:27.872Z,991.36
2017-01-14T02:19:38.618Z,991.35
2017-01-14T02:20:49.356Z,991.31
2017-01-14T02:22:00.102Z,991.29
2017-01-14T02:23:10.823Z,991.29
2017-01-14T02:24:21.574Z,991.28
2017-01-14T02:25:32.265Z,991.32
2017-01-14T02:26:43.011Z,991.27
2017-01-14T02:27:53.758Z,991.23
2017-01-14T02:29:04.486Z,991.26
2017-01-14T02:30:15.208Z,991.28
2017-01-14T02:31:25.942Z,991.32
2017-01-14T02:32:36.651Z,991.23
2017-01-14T02:33:47.383Z,991.25
2017-01-14T02:34:58.109Z,991.26
2017-01-14T02:36:08.826Z,991.23
2017-01-14T02:37:19.526Z,991.22
2017-01-14T02:38:30.258Z,991.2
2017-01-14T02:39:40.973Z,991.17
2017-01-14T02:40:51.692Z,991.19
2017-01-14T02:42:02.417Z,991.15
2017-01-14T02:43:13.134Z,991.15
2017-01-14T02:44:23.860Z,991.15
2017-01-14T02:45:34.601Z,991.17
2017-01-14T02:46:45.342Z,991.16
2017-01-14T02:47:56.064Z,991.14
2017-01-14T02:49:06.789Z,991.1
2017-01-14T02:50:17.531Z,991.15
2017-01-14T02:51:28.659Z,991.13
2017-01-14T02:52:39.773Z,991.11
2017-01-14T02:53:51.256Z,991.12
2017-01-14T02:55:01.966Z,991.18
2017-01-14T02:56:12.708Z,991.14
2017-01-14T02:57:23.431Z,991.13
2017-01-14T02:58:34.153Z,991.16
2017-01-14T02:59:44.878Z,991.15
2017-01-14T03:00:55.609Z,991.2
2017-01-14T03:02:06.311Z,991.22
2017-01-14T03:03:17.033Z,991.2
2017-01-14T03:04:27.740Z,991.18
2017-01-14T03:05:38.464Z,991.2
2017-01-14T03:06:49.175Z,991.13
2017-01-14T03:07:59.871Z,991.12
2017-01-14T03:09:10.571Z,991.11
2017-01-14T03:10:21.287Z,991.07
2017-01-14T03:11:32.009Z,991.07
2017-01-14T03:12:42.735Z,991.07
2017-01-14T03:13:53.473Z,991.06
2017-01-14T03:15:04.229Z,991.06
2017-01-14T03:16:14.952Z,991.04
2017-01-14T03:17:25.664Z,991.03
2017-01-14T03:18:36.395Z,990.99
2017-01-14T03:19:47.133Z,991.02
2017-01-14T03:20:57.848Z,991.02
2017-01-14T03:22:08.547Z,991.03
2017-01-14T03:23:19.253Z,991.06
2017-01-14T03:24:29.969Z,991.05
2017-01-14T03:25:40.682Z,991.04
2017-01-14T03:26:51.394Z,991.07
2017-01-14T03:28:02.104Z,991.03
2017-01-14T03:29:12.807Z,991.02
2017-01-14T03:30:23.542Z,990.96
2017-01-14T03:31:34.262Z,991
2017-01-14T03:32:44.970Z,991.01
2017-01-14T03:33:55.691Z,990.99
2017-01-14T03:35:06.462Z,990.99
2017-01-14T03:36:17.182Z,991
2017-01-14T03:37:27.950Z,990.91
2017-01-14T03:38:38.650Z,990.9
2017-01-14T03:39:49.385Z,990.92
2017-01-14T03:41:00.089Z,990.86
2017-01-14T03:42:10.830Z,990.89
2017-01-14T03:43:21.530Z,990.88
2017-01-14T03:44:32.247Z,990.81
2017-01-14T03:45:42.975Z,990.87
2017-01-14T03:46:53.696Z,990.89
2017-01-14T03:48:04.439Z,990.87
2017-01-14T03:49:15.160Z,990.85
2017-01-14T03:50:25.864Z,990.88
2017-01-14T03:51:36.601Z,990.88
2017-01-14T03:52:47.323Z,990.81
2017-01-14T03:53:58.048Z,990.79
2017-01-14T03:55:08.790Z,990.82
2017-01-14T03:56:19.521Z,990.75
2017-01-14T03:57:30.250Z,990.78
2017-01-14T03:58:40.933Z,990.74
2017-01-14T03:59:51.652Z,990.75
2017-01-14T04:01:02.396Z,990.74
2017-01-14T04:02:13.120Z,990.71
2017-01-14T04:03:23.832Z,990.74
2017-01-14T04:04:34.553Z,990.74
2017-01-14T04:05:45.274Z,990.72
2017-01-14T04:06:55.991Z,990.72
2017-01-14T04:08:06.698Z,990.75
2017-01-14T04:09:17.420Z,990.75
2017-01-14T04:10:28.142Z,990.75
2017-01-14T04:11:38.879Z,990.82
2017-01-14T04:12:49.588Z,990.83
2017-01-14T04:14:00.301Z,990.83
2017-01-14T04:15:11.025Z,990.84
2017-01-14T04:16:21.770Z,990.85
2017-01-14T04:17:32.481Z,990.89
2017-01-14T04:18:43.206Z,990.9
2017-01-14T04:19:53.951Z,990.92
2017-01-14T04:21:04.705Z,990.96
2017-01-14T04:22:15.443Z,990.98
2017-01-14T04:23:26.164Z,991.03
2017-01-14T04:24:36.908Z,991
2017-01-14T04:25:47.611Z,991.03
2017-01-14T04:26:58.374Z,991.05
2017-01-14T04:28:09.081Z,991
2017-01-14T04:29:19.801Z,991.05
2017-01-14T04:30:30.512Z,991.06
2017-01-14T04:31:41.211Z,991.04
2017-01-14T04:32:51.930Z,991.05
2017-01-14T04:34:02.633Z,991.06
2017-01-14T04:35:13.357Z,991.04
2017-01-14T04:36:24.066Z,991.11
2017-01-14T04:37:34.767Z,991.09
2017-01-14T04:38:45.508Z,991.05
2017-01-14T04:39:56.208Z,991.1
2017-01-14T04:41:06.938Z,991.12
2017-01-14T04:42:17.704Z,991.13
2017-01-14T04:43:28.446Z,991.12
2017-01-14T04:44:39.171Z,991.13
2017-01-14T04:45:49.871Z,991.11
2017-01-14T04:47:00.582Z,991.1
2017-01-14T04:48:11.302Z,991.14
2017-01-14T04:49:22.010Z,991.11
2017-01-14T04:50:32.745Z,991.15
2017-01-14T04:51:43.475Z,991.1
2017-01-14T04:52:54.219Z,991.15
2017-01-14T04:54:04.961Z,991.13
2017-01-14T04:55:15.661Z,991.14
2017-01-14T04:56:26.401Z,991.14
2017-01-14T04:57:37.098Z,991.11
2017-01-14T04:58:47.841Z,991.11
2017-01-14T04:59:58.587Z,991.11
2017-01-14T05:01:09.341Z,991.1
2017-01-14T05:02:20.079Z,991.1
2017-01-14T05:03:30.801Z,991.13
2017-01-14T05:04:41.499Z,991.09
2017-01-14T05:05:52.221Z,991.13
2017-01-14T05:07:02.943Z,991.1
2017-01-14T05:08:13.684Z,991.09
2017-01-14T05:09:24.409Z,991.08
2017-01-14T05:10:35.101Z,991.06
2017-01-14T05:11:45.798Z,991.06
2017-01-14T05:12:56.518Z,991.1
2017-01-14T05:14:07.224Z,991.07
2017-01-14T05:15:17.942Z,991.16
2017-01-14T05:16:28.685Z,991.15
2017-01-14T05:17:39.410Z,991.17
2017-01-14T05:18:50.159Z,991.16
2017-01-14T05:20:00.879Z,991.18
2017-01-14T05:21:11.594Z,991.16
2017-01-14T05:22:22.314Z,991.13
2017-01-14T05:23:33.439Z,991.14
2017-01-14T05:24:44.161Z,991.12
2017-01-14T05:25:54.909Z,991.11
2017-01-14T05:27:05.656Z,991.08
2017-01-14T05:28:16.392Z,991.1
2017-01-14T05:29:27.119Z,991.12
2017-01-14T05:30:37.842Z,991.24
2017-01-14T05:31:48.562Z,991.28
2017-01-14T05:32:59.312Z,991.35
2017-01-14T05:34:10.029Z,991.39
2017-01-14T05:35:20.754Z,991.43
2017-01-14T05:36:31.496Z,991.4
2017-01-14T05:37:42.212Z,991.39
2017-01-14T05:38:52.955Z,991.38
2017-01-14T05:40:03.690Z,991.41
2017-01-14T05:41:14.401Z,991.43
2017-01-14T05:42:25.094Z,991.51
2017-01-14T05:43:35.815Z,991.53
2017-01-14T05:44:46.546Z,991.55
2017-01-14T05:45:57.272Z,991.59
2017-01-14T05:47:07.991Z,991.6
2017-01-14T05:48:18.697Z,991.62
2017-01-14T05:49:29.401Z,991.63
2017-01-14T05:50:40.125Z,991.65
2017-01-14T05:51:50.843Z,991.69
2017-01-14T05:53:01.569Z,991.72
2017-01-14T05:54:12.303Z,991.74
2017-01-14T05:55:23.003Z,991.81
2017-01-14T05:56:33.755Z,991.83
2017-01-14T05:57:44.495Z,991.83
2017-01-14T05:58:55.194Z,991.88
2017-01-14T06:00:05.945Z,991.9
2017-01-14T06:01:16.682Z,991.87
2017-01-14T06:02:27.426Z,991.94
2017-01-14T06:03:38.171Z,991.97
2017-01-14T06:04:48.874Z,992
2017-01-14T06:05:59.620Z,992.03
2017-01-14T06:07:10.343Z,992.03
2017-01-14T06:08:21.079Z,992.09
2017-01-14T06:09:31.783Z,992.1
2017-01-14T06:10:42.508Z,992.11
2017-01-14T06:11:53.250Z,992.18
2017-01-14T06:13:03.990Z,992.17
2017-01-14T06:14:14.713Z,992.23
2017-01-14T06:15:25.440Z,992.26
2017-01-14T06:16:36.176Z,992.24
2017-01-14T06:17:46.884Z,992.24
2017-01-14T06:18:57.603Z,992.24
2017-01-14T06:20:08.315Z,992.25
2017-01-14T06:21:19.034Z,992.3
2017-01-14T06:22:29.756Z,992.28
2017-01-14T06:23:40.459Z,992.27
2017-01-14T06:24:51.183Z,992.25
2017-01-14T06:26:01.880Z,992.28
2017-01-14T06:27:12.627Z,992.32
2017-01-14T06:28:23.339Z,992.29
2017-01-14T06:29:34.085Z,992.33
2017-01-14T06:30:44.810Z,992.32
2017-01-14T06:31:55.527Z,992.34
2017-01-14T06:33:06.252Z,992.34
2017-01-14T06:34:16.948Z,992.37
2017-01-14T06:35:27.669Z,992.45
2017-01-14T06:36:38.390Z,992.45
2017-01-14T06:37:49.114Z,992.44
2017-01-14T06:38:59.824Z,992.47
2017-01-14T06:40:10.557Z,992.5
2017-01-14T06:41:21.274Z,992.53
2017-01-14T06:42:32.024Z,992.55
2017-01-14T06:43:42.770Z,992.56
2017-01-14T06:44:53.511Z,992.61
2017-01-14T06:46:04.235Z,992.64
2017-01-14T06:47:14.983Z,992.6
2017-01-14T06:48:25.699Z,992.65
2017-01-14T06:49:36.414Z,992.69
2017-01-14T06:50:47.134Z,992.71
2017-01-14T06:51:57.856Z,992.76
2017-01-14T06:53:08.587Z,992.82
2017-01-14T06:54:19.309Z,992.83
2017-01-14T06:55:30.048Z,992.91
2017-01-14T06:56:40.775Z,992.95
2017-01-14T06:57:51.485Z,992.93
2017-01-14T06:59:02.192Z,992.95
2017-01-14T07:00:12.911Z,993
2017-01-14T07:01:23.626Z,993.01
2017-01-14T07:02:34.344Z,993.01
2017-01-14T07:03:45.055Z,993.05
2017-01-14T07:04:55.819Z,993.06
2017-01-14T07:06:06.540Z,993.14
2017-01-14T07:07:17.260Z,993.1
2017-01-14T07:08:27.981Z,993.14
2017-01-14T07:09:38.698Z,993.17
2017-01-14T07:10:49.419Z,993.21
2017-01-14T07:12:00.137Z,993.22
2017-01-14T07:13:10.860Z,993.24
2017-01-14T07:14:21.593Z,993.24
2017-01-14T07:15:32.308Z,993.27
2017-01-14T07:16:43.046Z,993.28
2017-01-14T07:17:53.753Z,993.31
2017-01-14T07:19:04.494Z,993.34
2017-01-14T07:20:15.270Z,993.33
2017-01-14T07:21:25.987Z,993.38
2017-01-14T07:22:36.738Z,993.39
2017-01-14T07:23:47.472Z,993.45
2017-01-14T07:24:58.195Z,993.47
2017-01-14T07:26:08.946Z,993.52
2017-01-14T07:27:19.684Z,993.55
2017-01-14T07:28:30.416Z,993.6
2017-01-14T07:29:41.155Z,993.58
2017-01-14T07:30:51.876Z,993.62
2017-01-14T07:32:02.608Z,993.6
2017-01-14T07:33:13.347Z,993.57
2017-01-14T07:34:24.061Z,993.62
2017-01-14T07:35:34.810Z,993.63
2017-01-14T07:36:45.561Z,993.62
2017-01-14T07:37:56.281Z,993.66
2017-01-14T07:39:07.020Z,993.67
2017-01-14T07:40:17.717Z,993.74
2017-01-14T07:41:28.412Z,993.77
2017-01-14T07:42:39.112Z,993.82
2017-01-14T07:43:49.829Z,993.86
2017-01-14T07:45:00.560Z,993.93
2017-01-14T07:46:11.303Z,993.95
2017-01-14T07:47:22.029Z,993.99
2017-01-14T07:48:32.748Z,994.09
2017-01-14T07:49:43.467Z,994.07
2017-01-14T07:50:54.180Z,994.12
2017-01-14T07:52:04.888Z,994.17
2017-01-14T07:53:15.609Z,994.16
2017-01-14T07:54:26.355Z,994.18
2017-01-14T07:55:37.097Z,994.22
2017-01-14T07:56:47.860Z,994.22
2017-01-14T07:57:58.567Z,994.27
2017-01-14T07:59:09.302Z,994.29
2017-01-14T08:00:20.006Z,994.31
2017-01-14T08:01:30.720Z,994.36
2017-01-14T08:02:41.440Z,994.42
2017-01-14T08:03:52.169Z,994.44
2017-01-14T08:05:02.933Z,994.45
2017-01-14T08:06:13.632Z,994.49
2017-01-14T08:07:24.360Z,994.54
2017-01-14T08:08:35.078Z,994.5
2017-01-14T08:09:45.799Z,994.54
2017-01-14T08:10:56.516Z,994.59
2017-01-14T08:12:07.242Z,994.54
2017-01-14T08:13:17.941Z,994.64
2017-01-14T08:14:28.658Z,994.59
2017-01-14T08:15:39.424Z,994.67
2017-01-14T08:16:50.129Z,994.7
2017-01-14T08:18:00.842Z,994.73
2017-01-14T08:19:11.592Z,994.72
2017-01-14T08:20:22.317Z,994.79
2017-01-14T08:21:33.063Z,994.8
2017-01-14T08:22:43.801Z,994.85
2017-01-14T08:23:54.552Z,994.88
2017-01-14T08:25:05.652Z,994.86
2017-01-14T08:26:16.393Z,994.9
2017-01-14T08:27:27.106Z,994.94
2017-01-14T08:28:37.827Z,994.91
2017-01-14T08:29:48.533Z,994.97
2017-01-14T08:30:59.274Z,994.99
2017-01-14T08:32:09.998Z,995.01
2017-01-14T08:33:20.736Z,995.02
2017-01-14T08:34:31.436Z,995.05
2017-01-14T08:35:42.186Z,995.1
2017-01-14T08:36:52.907Z,995.1
2017-01-14T08:38:03.653Z,995.11
2017-01-14T08:39:14.367Z,995.12
2017-01-14T08:40:25.095Z,995.19
2017-01-14T08:41:35.819Z,995.25
2017-01-14T08:42:46.558Z,995.26
2017-01-14T08:43:57.284Z,995.28
2017-01-14T08:45:08.000Z,995.33
2017-01-14T08:46:19.155Z,995.34
2017-01-14T08:47:29.899Z,995.4
2017-01-14T08:48:40.590Z,995.43
2017-01-14T08:49:51.338Z,995.41
2017-01-14T08:51:02.064Z,995.46
2017-01-14T08:52:12.801Z,995.51
2017-01-14T08:53:23.546Z,995.54
2017-01-14T08:54:34.243Z,995.59
2017-01-14T08:55:44.936Z,995.6
2017-01-14T08:56:55.660Z,995.63
2017-01-14T08:58:06.386Z,995.64
2017-01-14T08:59:17.105Z,995.71
2017-01-14T09:00:27.803Z,995.7
2017-01-14T09:01:38.552Z,995.68
2017-01-14T09:02:49.265Z,995.77
2017-01-14T09:04:00.019Z,995.76
2017-01-14T09:05:10.736Z,995.78
2017-01-14T09:06:21.479Z,995.83
2017-01-14T09:07:32.250Z,995.85
2017-01-14T09:08:42.992Z,995.85
2017-01-14T09:09:53.690Z,995.89
2017-01-14T09:11:04.387Z,995.85
2017-01-14T09:12:15.083Z,995.91
2017-01-14T09:13:25.817Z,995.91
2017-01-14T09:14:36.553Z,995.99
2017-01-14T09:15:47.253Z,996.04
2017-01-14T09:16:58.367Z,996.01
2017-01-14T09:18:09.091Z,996.08
2017-01-14T09:19:19.819Z,996.11
2017-01-14T09:20:30.559Z,996.15
2017-01-14T09:21:41.299Z,996.16
2017-01-14T09:22:52.041Z,996.18
2017-01-14T09:24:02.795Z,996.23
2017-01-14T09:25:13.533Z,996.23
2017-01-14T09:26:24.229Z,996.27
2017-01-14T09:27:34.935Z,996.29
2017-01-14T09:28:45.675Z,996.31
2017-01-14T09:29:56.378Z,996.37
2017-01-14T09:31:07.096Z,996.4
2017-01-14T09:32:17.836Z,996.45
2017-01-14T09:33:28.559Z,996.47
2017-01-14T09:34:39.286Z,996.46
2017-01-14T09:35:50.009Z,996.53
2017-01-14T09:37:00.744Z,996.57
2017-01-14T09:38:11.472Z,996.58
2017-01-14T09:39:22.221Z,996.61
2017-01-14T09:40:32.964Z,996.64
2017-01-14T09:41:43.688Z,996.61
2017-01-14T09:42:54.431Z,996.66
2017-01-14T09:44:05.147Z,996.62
2017-01-14T09:45:15.897Z,996.69
2017-01-14T09:46:26.637Z,996.71
2017-01-14T09:47:37.366Z,996.71
2017-01-14T09:48:48.086Z,996.78
2017-01-14T09:49:58.810Z,996.74
2017-01-14T09:51:09.549Z,996.79
2017-01-14T09:52:20.293Z,996.77
2017-01-14T09:53:31.016Z,996.81
2017-01-14T09:54:41.745Z,996.81
2017-01-14T09:55:52.487Z,996.84
2017-01-14T09:57:03.204Z,996.86
2017-01-14T09:58:13.955Z,996.9
2017-01-14T09:59:24.678Z,996.92
2017-01-14T10:00:35.425Z,996.93
2017-01-14T10:01:46.163Z,996.93
2017-01-14T10:02:56.891Z,996.92
2017-01-14T10:04:07.626Z,996.93
2017-01-14T10:05:18.355Z,996.85
2017-01-14T10:06:29.101Z,996.92
2017-01-14T10:07:39.799Z,996.91
2017-01-14T10:08:50.518Z,996.96
2017-01-14T10:10:01.268Z,996.95
2017-01-14T10:11:12.009Z,996.98
2017-01-14T10:12:22.724Z,997.02
2017-01-14T10:13:33.455Z,997.01
2017-01-14T10:14:44.165Z,997.06
2017-01-14T10:15:54.887Z,997.06
2017-01-14T10:17:05.582Z,997.07
2017-01-14T10:18:16.307Z,997.07
2017-01-14T10:19:27.065Z,997.08
2017-01-14T10:20:37.782Z,997.13
2017-01-14T10:21:48.529Z,997.09
2017-01-14T10:22:59.270Z,997.13
2017-01-14T10:24:09.969Z,997.11
2017-01-14T10:25:21.092Z,997.15
2017-01-14T10:26:31.826Z,997.11
2017-01-14T10:27:42.525Z,997.16
2017-01-14T10:28:53.229Z,997.25
2017-01-14T10:30:03.942Z,997.28
2017-01-14T10:31:14.685Z,997.27
2017-01-14T10:32:25.405Z,997.31
2017-01-14T10:33:36.134Z,997.37
2017-01-14T10:34:46.848Z,997.35
2017-01-14T10:35:57.547Z,997.37
2017-01-14T10:37:08.293Z,997.4
2017-01-14T10:38:19.023Z,997.36
2017-01-14T10:39:29.739Z,997.42
2017-01-14T10:40:40.464Z,997.43
2017-01-14T10:41:51.148Z,997.48
2017-01-14T10:43:01.870Z,997.49
2017-01-14T10:44:12.567Z,997.49
2017-01-14T10:45:23.290Z,997.49
2017-01-14T10:46:34.013Z,997.45
2017-01-14T10:47:44.772Z,997.5
2017-01-14T10:48:55.484Z,997.47
2017-01-14T10:50:06.210Z,997.44
2017-01-14T10:51:16.949Z,997.38
2017-01-14T10:52:27.675Z,997.4
2017-01-14T10:53:38.399Z,997.42
2017-01-14T10:54:49.138Z,997.44
2017-01-14T10:55:59.852Z,997.44
2017-01-14T10:57:10.560Z,997.41
2017-01-14T10:58:21.304Z,997.43
2017-01-14T10:59:32.022Z,997.41
2017-01-14T11:00:42.747Z,997.46
2017-01-14T11:01:53.464Z,997.45
2017-01-14T11:03:04.188Z,997.46
2017-01-14T11:04:14.927Z,997.51
2017-01-14T11:05:25.681Z,997.57
2017-01-14T11:06:36.398Z,997.57
2017-01-14T11:07:47.140Z,997.62
2017-01-14T11:08:57.861Z,997.7
2017-01-14T11:10:08.715Z,997.62
2017-01-14T11:11:19.437Z,997.73
2017-01-14T11:12:30.181Z,997.72
2017-01-14T11:13:40.924Z,997.73
2017-01-14T11:14:51.648Z,997.75
2017-01-14T11:16:02.391Z,997.78
2017-01-14T11:17:13.119Z,997.81
2017-01-14T11:18:23.826Z,997.84
2017-01-14T11:19:34.554Z,997.82
2017-01-14T11:20:45.300Z,997.8
2017-01-14T11:21:56.046Z,997.82
2017-01-14T11:23:07.162Z,997.77
2017-01-14T11:24:17.880Z,997.81
2017-01-14T11:25:28.604Z,997.81
2017-01-14T11:26:39.310Z,997.8
2017-01-14T11:27:50.047Z,997.84
2017-01-14T11:29:00.789Z,997.8
2017-01-14T11:30:11.497Z,997.86
2017-01-14T11:31:22.206Z,997.88
2017-01-14T11:32:32.927Z,997.88
2017-01-14T11:33:43.648Z,997.87
2017-01-14T11:34:54.353Z,997.89
2017-01-14T11:36:05.451Z,997.9
2017-01-14T11:37:16.564Z,997.95
2017-01-14T11:38:27.292Z,997.93
2017-01-14T11:39:38.040Z,997.93
2017-01-14T11:40:49.152Z,997.94
2017-01-14T11:41:59.881Z,997.94
2017-01-14T11:43:10.615Z,997.92
2017-01-14T11:44:21.720Z,997.96
2017-01-14T11:45:32.461Z,997.96
2017-01-14T11:46:43.187Z,997.95
2017-01-14T11:47:54.282Z,997.98
2017-01-14T11:49:05.003Z,997.9
2017-01-14T11:50:15.742Z,997.91
2017-01-14T11:51:26.449Z,997.91
2017-01-14T11:52:37.191Z,997.91
2017-01-14T11:53:47.915Z,997.85
2017-01-14T11:54:58.633Z,997.88
2017-01-14T11:56:09.396Z,997.85
2017-01-14T11:57:20.095Z,997.85
2017-01-14T11:58:30.825Z,997.88
2017-01-14T11:59:41.567Z,997.9
2017-01-14T12:00:52.306Z,997.91
2017-01-14T12:02:03.030Z,997.93
2017-01-14T12:03:13.759Z,997.93
2017-01-14T12:04:24.476Z,997.96
2017-01-14T12:05:35.225Z,997.97
2017-01-14T12:06:45.964Z,998.01
2017-01-14T12:07:56.706Z,998.02
2017-01-14T12:09:07.428Z,998.08
2017-01-14T12:10:18.135Z,998.04
2017-01-14T12:11:29.258Z,998.08
2017-01-14T12:12:39.994Z,998.06
2017-01-14T12:13:50.715Z,998.08
2017-01-14T12:15:01.494Z,998.05
2017-01-14T12:16:12.614Z,998.04
2017-01-14T12:17:23.338Z,998.07
2017-01-14T12:18:34.081Z,998.1
2017-01-14T12:19:44.819Z,998.16
2017-01-14T12:20:55.545Z,998.12
2017-01-14T12:22:06.287Z,998.13
2017-01-14T12:23:17.004Z,998.12
2017-01-14T12:24:27.716Z,998.11
2017-01-14T12:25:38.454Z,998.11
2017-01-14T12:26:49.553Z,998.21
2017-01-14T12:28:00.301Z,998.18
2017-01-14T12:29:11.045Z,998.19
2017-01-14T12:30:21.792Z,998.22
2017-01-14T12:31:32.525Z,998.23
2017-01-14T12:32:43.247Z,998.17
2017-01-14T12:33:53.983Z,998.24
2017-01-14T12:35:04.714Z,998.26
2017-01-14T12:36:15.442Z,998.26
2017-01-14T12:37:26.188Z,998.26
2017-01-14T12:38:36.930Z,998.28
2017-01-14T12:39:47.701Z,998.35
2017-01-14T12:40:58.404Z,998.3
2017-01-14T12:42:09.148Z,998.34
2017-01-14T12:43:19.893Z,998.37
2017-01-14T12:44:30.635Z,998.36
2017-01-14T12:45:41.361Z,998.37
2017-01-14T12:46:52.081Z,998.38
2017-01-14T12:48:02.823Z,998.35
2017-01-14T12:49:13.529Z,998.41
2017-01-14T12:50:24.272Z,998.39
2017-01-14T12:51:34.992Z,998.48
2017-01-14T12:52:45.739Z,998.51
2017-01-14T12:53:56.861Z,998.45
2017-01-14T12:55:07.603Z,998.37
2017-01-14T12:56:18.324Z,998.36
2017-01-14T12:57:29.069Z,998.36
2017-01-14T12:58:40.199Z,998.41
2017-01-14T12:59:50.918Z,998.4
2017-01-14T13:01:01.636Z,998.38
2017-01-14T13:02:12.357Z,998.44
2017-01-14T13:03:23.043Z,998.45
2017-01-14T13:04:33.741Z,998.46
2017-01-14T13:05:44.470Z,998.48
2017-01-14T13:06:55.192Z,998.55
2017-01-14T13:08:05.912Z,998.51
2017-01-14T13:09:16.654Z,998.49
2017-01-14T13:10:27.396Z,998.48
2017-01-14T13:11:38.148Z,998.48
2017-01-14T13:12:48.864Z,998.46
2017-01-14T13:13:59.630Z,998.49
2017-01-14T13:15:10.353Z,998.52
2017-01-14T13:16:21.084Z,998.5
2017-01-14T13:17:31.798Z,998.54
2017-01-14T13:18:42.515Z,998.54
2017-01-14T13:19:53.244Z,998.54
2017-01-14T13:21:03.969Z,998.54
2017-01-14T13:22:14.703Z,998.57
2017-01-14T13:23:25.427Z,998.61
2017-01-14T13:24:36.124Z,998.61
2017-01-14T13:25:47.241Z,998.68
2017-01-14T13:26:57.965Z,998.69
2017-01-14T13:28:08.690Z,998.63
2017-01-14T13:29:19.416Z,998.72
2017-01-14T13:30:30.136Z,998.71
2017-01-14T13:31:40.876Z,998.71
2017-01-14T13:32:51.631Z,998.73
2017-01-14T13:34:02.368Z,998.74
2017-01-14T13:35:13.069Z,998.7
2017-01-14T13:36:23.790Z,998.75
2017-01-14T13:37:34.538Z,998.7
2017-01-14T13:38:45.275Z,998.71
2017-01-14T13:39:56.028Z,998.69
2017-01-14T13:41:06.750Z,998.75
2017-01-14T13:42:17.472Z,998.74
2017-01-14T13:43:28.213Z,998.74
2017-01-14T13:44:38.937Z,998.76
2017-01-14T13:45:49.655Z,998.76
2017-01-14T13:47:00.368Z,998.75
2017-01-14T13:48:11.100Z,998.77
2017-01-14T13:49:21.847Z,998.8
2017-01-14T13:50:32.585Z,998.85
2017-01-14T13:51:43.317Z,998.85
2017-01-14T13:52:54.035Z,998.88
2017-01-14T13:54:04.783Z,998.9
2017-01-14T13:55:15.491Z,998.87
2017-01-14T13:56:26.197Z,998.96
2017-01-14T13:57:36.944Z,998.96
2017-01-14T13:58:47.686Z,998.95
2017-01-14T13:59:58.408Z,998.97
2017-01-14T14:01:09.532Z,999.03
2017-01-14T14:02:20.294Z,999.03
2017-01-14T14:03:31.012Z,999.03
2017-01-14T14:04:41.719Z,999.01
2017-01-14T14:05:52.458Z,999.09
2017-01-14T14:07:03.204Z,999.09
2017-01-14T14:08:13.897Z,999.11
2017-01-14T14:09:24.607Z,999.12
2017-01-14T14:10:35.350Z,999.13
2017-01-14T14:11:46.067Z,999.06
2017-01-14T14:12:56.791Z,999.03
2017-01-14T14:14:07.540Z,999.09
2017-01-14T14:15:18.658Z,999.17
2017-01-14T14:16:29.397Z,999.11
2017-01-14T14:17:40.122Z,999.08
2017-01-14T14:18:50.849Z,999.11
2017-01-14T14:20:01.567Z,999.16
2017-01-14T14:21:12.302Z,999.18
2017-01-14T14:22:23.023Z,999.14
2017-01-14T14:23:33.769Z,999.19
2017-01-14T14:24:44.478Z,999.14
2017-01-14T14:25:55.222Z,999.16
2017-01-14T14:27:05.969Z,999.11
2017-01-14T14:28:16.703Z,999.15
2017-01-14T14:29:27.435Z,999.21
2017-01-14T14:30:38.183Z,999.2
2017-01-14T14:31:48.919Z,999.22
2017-01-14T14:32:59.649Z,999.19
2017-01-14T14:34:10.361Z,999.18
2017-01-14T14:35:21.103Z,999.19
2017-01-14T14:36:31.810Z,999.18
2017-01-14T14:37:42.921Z,999.21
2017-01-14T14:38:53.628Z,999.22
2017-01-14T14:40:04.349Z,999.19
2017-01-14T14:41:15.066Z,999.18
2017-01-14T14:42:25.781Z,999.19
2017-01-14T14:43:36.502Z,999.2
2017-01-14T14:44:47.198Z,999.24
2017-01-14T14:45:57.931Z,999.21